Time;durP1;ratioP1;P1;durP2;ratioP2;P2;SDS_P1;SDS_P2;PMS_P1;PMS_P2;Temp;Humidity;BMP_temperature;BMP_pressure;BME280_temperature;BME280_humidity;BME280_pressure;Samples;Min_cycle;Max_cycle;Signal;HPM_P1;HPM_P2
2022/12/01 00:00:05;;;;;;;;;;;;;;;;;;4992951;28;1790;-47
2022/12/01 00:02:32;;;;;;;;;;;;;;;;;;4992668;28;1956;-43
2022/12/01 00:05:00;;;;;;;;;;;;;;;;;;4992338;28;1933;-46
2022/12/01 00:07:27;;;;;;;;;;;;;;;;;;4992935;28;1862;-44
2022/12/01 00:12:42;;;;;;;;;;;;;;;;;;4992673;28;1838;-46
2022/12/01 00:15:10;;;;;;;;;;;;;;;;;;4992771;28;1919;-45
2022/12/01 00:17:37;;;;;;;;;;;;;;;;;;4990449;28;1958;-45
2022/12/01 00:20:05;;;;;;;;;;;;;;;;;;4973106;28;2027;-46
2022/12/01 00:22:32;;;;;;;;;;;;;;;;;;4972939;28;2089;-47
2022/12/01 00:24:59;;;;;;;;;;;;;;;;;;4980100;28;1899;-44
2022/12/01 00:27:26;;;;;;;;;;;;;;;;;;4992750;28;2039;-47
2022/12/01 00:29:53;;;;;;;;;;;;;;;;;;4990948;28;2041;-47
2022/12/01 00:32:20;;;;;;;;;;;;;;;;;;4992188;28;2401;-46
2022/12/01 00:34:47;;;;;;;;;;;;;;;;;;4992303;28;2096;-46
2022/12/01 00:37:14;;;;;;;;;;;;;;;;;;4991512;28;2045;-46
2022/12/01 00:39:41;;;;;;;;;;;;;;;;;;4992002;28;1916;-49
2022/12/01 00:42:09;;;;;;;;;;;;;;;;;;4992005;28;2161;-46
2022/12/01 00:44:39;;;;;;;;;;;;;;;;;;4991569;28;1999;-47
2022/12/01 00:47:06;;;;;;;;;;;;;;;;;;4992265;28;1781;-47
2022/12/01 00:49:33;;;;;;;;;;;;;;;;;;4991808;28;1910;-45
2022/12/01 00:52:00;;;;;;;;;;;;;;;;;;4992100;28;2014;-45
2022/12/01 00:54:30;;;;;;;;;;;;;;;;;;4992350;28;1766;-46
2022/12/01 00:56:58;;;;;;;;;;;;;;;;;;4992235;28;2102;-47
2022/12/01 00:59:25;;;;;;;;;;;;;;;;;;4992193;28;2015;-45
2022/12/01 01:01:52;;;;;;;;;;;;;;;;;;4991964;28;2077;-47
2022/12/01 01:04:20;;;;;;;;;;;;;;;;;;4991523;28;2076;-46
2022/12/01 01:06:47;;;;;;;;;;;;;;;;;;4991679;28;1773;-45
2022/12/01 01:09:14;;;;;;;;;;;;;;;;;;4991617;28;1882;-45
2022/12/01 01:11:42;;;;;;;;;;;;;;;;;;4991744;28;1876;-45
2022/12/01 01:14:09;;;;;;;;;;;;;;;;;;4991676;28;1953;-44
2022/12/01 01:16:37;;;;;;;;;;;;;;;;;;4991877;28;2020;-46
2022/12/01 01:19:04;;;;;;;;;;;;;;;;;;4978157;28;2050;-45
2022/12/01 01:21:31;;;;;;;;;;;;;;;;;;4972152;28;2006;-45
2022/12/01 01:23:58;;;;;;;;;;;;;;;;;;4971830;28;1960;-45
2022/12/01 01:26:27;;;;;;;;;;;;;;;;;;4971906;28;2039;-47
2022/12/01 01:28:58;;;;;;;;;;;;;;;;;;4972406;28;2006;-43
2022/12/01 01:31:26;;;;;;;;;;;;;;;;;;4972584;28;1908;-46
2022/12/01 01:33:54;;;;;;;;;;;;;;;;;;4972188;28;1907;-47
2022/12/01 01:36:22;;;;;;;;;;;;;;;;;;4972137;28;1907;-46
2022/12/01 01:38:53;;;;;;;;;;;;;;;;;;4972068;28;1958;-47
2022/12/01 01:41:20;;;;;;;;;;;;;;;;;;4972173;28;1971;-46
2022/12/01 01:43:48;;;;;;;;;;;;;;;;;;4971789;28;2188;-45
2022/12/01 01:46:17;;;;;;;;;;;;;;;;;;4971687;28;1911;-46
2022/12/01 01:48:49;;;;;;;;;;;;;;;;;;4974945;28;1930;-47
2022/12/01 01:51:18;;;;;;;;;;;;;;;;;;4975617;28;1913;-47
2022/12/01 01:53:46;;;;;;;;;;;;;;;;;;4975546;28;2131;-44
2022/12/01 01:56:13;;;;;;;;;;;;;;;;;;4975758;28;2162;-48
2022/12/01 01:58:41;;;;;;;;;;;;;;;;;;4975873;28;1911;-49
2022/12/01 02:01:08;;;;;;;;;;;;;;;;;;4975682;28;2094;-46
2022/12/01 02:03:36;;;;;;;;;;;;;;;;;;4975327;28;1957;-46
2022/12/01 02:06:05;;;;;;;;;;;;;;;;;;4974813;28;1889;-45
2022/12/01 02:08:33;;;;;;;;;;;;;;;;;;4975307;28;1978;-45
2022/12/01 02:11:12;;;;;;;;;;;;;;;;;;4975413;28;2025;-45
2022/12/01 02:13:55;;;;;;;;;;;;;;;;;;4975332;28;2002;-44
2022/12/01 02:16:25;;;;;;;;;;;;;;;;;;4975173;28;1902;-46
2022/12/01 02:19:04;;;;;;;;;;;;;;;;;;4975374;28;2118;-47
2022/12/01 02:21:35;;;;;;;;;;;;;;;;;;4975328;28;2222;-44
2022/12/01 02:24:08;;;;;;;;;;;;;;;;;;4974730;28;2068;-46
2022/12/01 02:26:35;;;;;;;;;;;;;;;;;;4974912;28;1661;-44
2022/12/01 02:29:11;;;;;;;;;;;;;;;;;;4974828;28;2069;-44
2022/12/01 02:31:52;;;;;;;;;;;;;;;;;;4985280;28;1954;-44
2022/12/01 02:34:30;;;;;;;;;;;;;;;;;;4994548;28;1902;-48
2022/12/01 02:37:01;;;;;;;;;;;;;;;;;;4994607;28;2003;-45
2022/12/01 02:39:34;;;;;;;;;;;;;;;;;;4994451;28;1954;-48
2022/12/01 02:45:12;;;;;;;;;;;;;;;;;;4974388;28;2201;-44
2022/12/01 02:47:40;;;;;;;;;;;;;;;;;;4974420;28;1878;-46
2022/12/01 02:50:08;;;;;;;;;;;;;;;;;;4984283;28;2164;-45
2022/12/01 02:52:36;;;;;;;;;;;;;;;;;;4994247;28;1977;-47
2022/12/01 02:55:03;;;;;;;;;;;;;;;;;;4994224;28;1901;-44
2022/12/01 02:57:30;;;;;;;;;;;;;;;;;;4994051;28;2054;-44
2022/12/01 02:59:58;;;;;;;;;;;;;;;;;;4993526;28;2162;-46
2022/12/01 03:02:52;;;;;;;;;;;;;;;;;;4993993;28;1937;-45
2022/12/01 03:05:22;;;;;;;;;;;;;;;;;;4993632;28;2085;-47
2022/12/01 03:07:49;;;;;;;;;;;;;;;;;;4993500;28;2090;-48
2022/12/01 03:10:18;;;;;;;;;;;;;;;;;;4993871;28;1928;-45
2022/12/01 03:13:04;;;;;;;;;;;;;;;;;;4993945;28;1917;-46
2022/12/01 03:15:43;;;;;;;;;;;;;;;;;;4993840;28;1888;-45
2022/12/01 03:18:22;;;;;;;;;;;;;;;;;;4987496;28;2024;-47
2022/12/01 03:20:56;;;;;;;;;;;;;;;;;;4974118;28;1911;-44
2022/12/01 03:23:25;;;;;;;;;;;;;;;;;;4973952;28;2128;-45
2022/12/01 03:25:54;;;;;;;;;;;;;;;;;;4973840;28;2100;-45
2022/12/01 03:28:27;;;;;;;;;;;;;;;;;;4973980;28;2183;-44
2022/12/01 03:30:57;;;;;;;;;;;;;;;;;;4974152;28;1829;-45
2022/12/01 03:33:31;;;;;;;;;;;;;;;;;;4973959;28;1868;-48
2022/12/01 03:36:02;;;;;;;;;;;;;;;;;;4974119;28;1864;-45
2022/12/01 03:38:30;;;;;;;;;;;;;;;;;;4973977;28;1926;-46
2022/12/01 03:41:04;;;;;;;;;;;;;;;;;;4973929;28;2208;-45
2022/12/01 03:43:32;;;;;;;;;;;;;;;;;;4973789;28;2080;-46
2022/12/01 03:45:59;;;;;;;;;;;;;;;;;;4972990;28;2095;-46
2022/12/01 03:48:27;;;;;;;;;;;;;;;;;;4973802;28;1959;-44
2022/12/01 03:51:03;;;;;;;;;;;;;;;;;;4973591;28;1968;-45
2022/12/01 03:54:03;;;;;;;;;;;;;;;;;;4973706;28;1886;-45
2022/12/01 03:56:38;;;;;;;;;;;;;;;;;;4982425;28;2037;-43
2022/12/01 03:59:07;;;;;;;;;;;;;;;;;;4973524;28;2064;-46
2022/12/01 04:01:35;;;;;;;;;;;;;;;;;;4972732;28;2013;-45
2022/12/01 04:04:06;;;;;;;;;;;;;;;;;;4973047;28;2080;-45
2022/12/01 04:06:34;;;;;;;;;;;;;;;;;;4973052;28;2032;-44
2022/12/01 04:09:01;;;;;;;;;;;;;;;;;;4973100;28;2018;-44
2022/12/01 04:14:14;;;;;;;;;;;;;;;;;;4978332;28;1881;-45
2022/12/01 04:16:41;;;;;;;;;;;;;;;;;;4991254;28;1955;-48
2022/12/01 04:19:08;;;;;;;;;;;;;;;;;;4986110;28;2104;-45
2022/12/01 04:21:35;;;;;;;;;;;;;;;;;;4992140;28;2133;-44
2022/12/01 04:24:03;;;;;;;;;;;;;;;;;;4992262;28;1928;-45
2022/12/01 04:26:31;;;;;;;;;;;;;;;;;;4991092;28;2086;-43
2022/12/01 04:29:02;;;;;;;;;;;;;;;;;;4992193;28;2038;-45
2022/12/01 04:31:30;;;;;;;;;;;;;;;;;;4992326;28;2029;-45
2022/12/01 04:33:57;;;;;;;;;;;;;;;;;;4992320;28;2005;-50
2022/12/01 04:36:25;;;;;;;;;;;;;;;;;;4992382;28;1729;-46
2022/12/01 04:38:52;;;;;;;;;;;;;;;;;;4992171;28;1966;-47
2022/12/01 04:41:20;;;;;;;;;;;;;;;;;;4992100;28;1878;-46
2022/12/01 04:43:47;;;;;;;;;;;;;;;;;;4991901;28;1851;-48
2022/12/01 04:46:14;;;;;;;;;;;;;;;;;;4991850;28;1901;-46
2022/12/01 04:48:42;;;;;;;;;;;;;;;;;;4991875;28;1726;-46
2022/12/01 04:51:09;;;;;;;;;;;;;;;;;;4991996;28;2018;-46
2022/12/01 04:53:36;;;;;;;;;;;;;;;;;;4992063;28;2109;-46
2022/12/01 04:56:04;;;;;;;;;;;;;;;;;;4991769;28;2055;-45
2022/12/01 04:58:32;;;;;;;;;;;;;;;;;;4992284;28;2012;-47
2022/12/01 05:01:07;;;;;;;;;;;;;;;;;;4991865;28;2073;-47
2022/12/01 05:03:36;;;;;;;;;;;;;;;;;;4991874;28;2047;-47
2022/12/01 05:06:03;;;;;;;;;;;;;;;;;;4991515;28;2000;-44
2022/12/01 05:08:31;;;;;;;;;;;;;;;;;;4991677;28;2140;-45
2022/12/01 05:10:58;;;;;;;;;;;;;;;;;;4991900;28;1986;-46
2022/12/01 05:13:27;;;;;;;;;;;;;;;;;;4990732;28;1831;-44
2022/12/01 05:16:02;;;;;;;;;;;;;;;;;;4990822;28;1985;-46
2022/12/01 05:18:29;;;;;;;;;;;;;;;;;;4986082;28;1975;-48
2022/12/01 05:20:59;;;;;;;;;;;;;;;;;;4991536;28;1838;-45
2022/12/01 05:23:31;;;;;;;;;;;;;;;;;;4993805;28;1840;-42
2022/12/01 05:26:03;;;;;;;;;;;;;;;;;;4992921;28;2119;-41
2022/12/01 05:28:33;;;;;;;;;;;;;;;;;;4993930;28;1830;-41
2022/12/01 05:31:05;;;;;;;;;;;;;;;;;;4994989;28;1841;-42
2022/12/01 05:33:35;;;;;;;;;;;;;;;;;;4995399;28;1995;-40
2022/12/01 05:36:21;;;;;;;;;;;;;;;;;;4994857;28;2119;-42
2022/12/01 05:38:48;;;;;;;;;;;;;;;;;;4994777;28;2134;-43
2022/12/01 05:41:16;;;;;;;;;;;;;;;;;;4995241;28;2133;-45
2022/12/01 05:43:43;;;;;;;;;;;;;;;;;;4994974;28;1890;-46
2022/12/01 05:46:10;;;;;;;;;;;;;;;;;;4994742;28;1992;-46
2022/12/01 05:48:37;;;;;;;;;;;;;;;;;;4994684;28;1989;-43
2022/12/01 05:51:12;;;;;;;;;;;;;;;;;;4994377;28;1806;-41
2022/12/01 05:53:39;;;;;;;;;;;;;;;;;;4994761;28;2057;-41
2022/12/01 05:56:07;;;;;;;;;;;;;;;;;;4995011;28;1892;-46
2022/12/01 05:58:34;;;;;;;;;;;;;;;;;;4994537;28;2065;-44
2022/12/01 06:01:01;;;;;;;;;;;;;;;;;;4994826;28;2014;-48
2022/12/01 06:03:30;;;;;;;;;;;;;;;;;;4987467;28;2027;-49
2022/12/01 06:05:59;;;;;;;;;;;;;;;;;;4975441;28;2042;-43
2022/12/01 06:08:29;;;;;;;;;;;;;;;;;;4975005;28;1838;-46
2022/12/01 06:10:57;;;;;;;;;;;;;;;;;;4975399;28;2021;-47
2022/12/01 06:13:26;;;;;;;;;;;;;;;;;;4974818;28;1964;-45
2022/12/01 06:16:01;;;;;;;;;;;;;;;;;;4974875;28;2101;-44
2022/12/01 06:18:36;;;;;;;;;;;;;;;;;;4983561;28;2237;-46
2022/12/01 06:21:06;;;;;;;;;;;;;;;;;;4994457;28;2086;-44
2022/12/01 06:23:33;;;;;;;;;;;;;;;;;;4994126;28;1844;-49
2022/12/01 06:26:01;;;;;;;;;;;;;;;;;;4994549;28;1748;-45
2022/12/01 06:28:28;;;;;;;;;;;;;;;;;;4993670;28;1951;-44
2022/12/01 06:30:57;;;;;;;;;;;;;;;;;;4994323;28;2078;-46
2022/12/01 06:33:29;;;;;;;;;;;;;;;;;;4993685;28;2065;-44
2022/12/01 06:35:57;;;;;;;;;;;;;;;;;;4993247;28;1797;-47
2022/12/01 06:38:24;;;;;;;;;;;;;;;;;;4993968;28;2174;-44
2022/12/01 06:40:51;;;;;;;;;;;;;;;;;;4993810;28;1999;-44
2022/12/01 06:43:18;;;;;;;;;;;;;;;;;;4993691;28;2557;-42
2022/12/01 06:45:45;;;;;;;;;;;;;;;;;;4994137;28;2072;-45
2022/12/01 06:48:13;;;;;;;;;;;;;;;;;;4993519;28;1834;-46
2022/12/01 06:50:40;;;;;;;;;;;;;;;;;;4993986;28;1941;-46
2022/12/01 06:53:08;;;;;;;;;;;;;;;;;;4994026;28;1836;-50
2022/12/01 06:55:35;;;;;;;;;;;;;;;;;;4993064;28;2025;-47
2022/12/01 06:58:02;;;;;;;;;;;;;;;;;;4994110;28;1910;-49
2022/12/01 07:00:29;;;;;;;;;;;;;;;;;;4993581;28;1268;-41
2022/12/01 07:02:57;;;;;;;;;;;;;;;;;;4993911;28;2001;-45
2022/12/01 07:05:24;;;;;;;;;;;;;;;;;;4993952;28;2162;-48
2022/12/01 07:07:51;;;;;;;;;;;;;;;;;;4992669;28;2117;-46
2022/12/01 07:10:24;;;;;;;;;;;;;;;;;;4993399;28;1867;-44
2022/12/01 07:12:51;;;;;;;;;;;;;;;;;;4993511;28;1974;-45
2022/12/01 07:15:23;;;;;;;;;;;;;;;;;;4993314;28;2104;-47
2022/12/01 07:17:54;;;;;;;;;;;;;;;;;;4989735;28;1977;-48
2022/12/01 07:20:30;;;;;;;;;;;;;;;;;;4973420;28;1955;-46
2022/12/01 07:22:58;;;;;;;;;;;;;;;;;;4973734;28;2006;-45
2022/12/01 07:25:29;;;;;;;;;;;;;;;;;;4973703;28;2070;-44
2022/12/01 07:27:58;;;;;;;;;;;;;;;;;;4973392;28;2070;-45
2022/12/01 07:30:25;;;;;;;;;;;;;;;;;;4973425;28;2051;-46
2022/12/01 07:32:54;;;;;;;;;;;;;;;;;;4973550;28;1980;-50
2022/12/01 07:35:21;;;;;;;;;;;;;;;;;;4973065;28;2113;-46
2022/12/01 07:37:52;;;;;;;;;;;;;;;;;;4973574;28;1916;-46
2022/12/01 07:40:20;;;;;;;;;;;;;;;;;;4973291;28;1921;-45
2022/12/01 07:42:47;;;;;;;;;;;;;;;;;;4973395;28;1891;-45
2022/12/01 07:45:14;;;;;;;;;;;;;;;;;;4972903;28;1819;-46
2022/12/01 07:47:43;;;;;;;;;;;;;;;;;;4973189;28;1985;-48
2022/12/01 07:50:11;;;;;;;;;;;;;;;;;;4973486;28;2054;-45
2022/12/01 07:52:38;;;;;;;;;;;;;;;;;;4973365;28;2145;-45
2022/12/01 07:55:05;;;;;;;;;;;;;;;;;;4973297;28;1940;-46
2022/12/01 07:57:32;;;;;;;;;;;;;;;;;;4972925;28;2120;-48
2022/12/01 08:00:00;;;;;;;;;;;;;;;;;;4975889;28;2171;-47
2022/12/01 08:02:37;;;;;;;;;;;;;;;;;;4972292;28;1620;-45
2022/12/01 08:05:04;;;;;;;;;;;;;;;;;;5001387;28;1901;-45
2022/12/01 08:07:31;;;;;;;;;;;;;;;;;;4991365;28;1987;-44
2022/12/01 08:09:58;;;;;;;;;;;;;;;;;;4983783;28;1961;-44
2022/12/01 08:12:25;;;;;;;;;;;;;;;;;;4972906;28;2021;-44
2022/12/01 08:14:52;;;;;;;;;;;;;;;;;;4972266;28;1992;-44
2022/12/01 08:17:20;;;;;;;;;;;;;;;;;;4972441;28;2126;-46
2022/12/01 08:19:47;;;;;;;;;;;;;;;;;;4989283;28;2062;-45
2022/12/01 08:22:14;;;;;;;;;;;;;;;;;;4990707;28;1994;-47
2022/12/01 08:24:41;;;;;;;;;;;;;;;;;;4987885;28;2129;-45
2022/12/01 08:27:08;;;;;;;;;;;;;;;;;;4972458;28;2091;-46
2022/12/01 08:29:35;;;;;;;;;;;;;;;;;;4972724;28;1850;-44
2022/12/01 08:32:02;;;;;;;;;;;;;;;;;;4972837;28;1778;-48
2022/12/01 08:42:38;;;;;;;;;;;;;;;;;;4974064;28;1972;-45
2022/12/01 08:45:05;;;;;;;;;;;;;;;;;;4973182;28;2008;-44
2022/12/01 08:47:32;;;;;;;;;;;;;;;;;;4972789;28;1821;-44
2022/12/01 08:50:00;;;;;;;;;;;;;;;;;;4972170;28;1922;-44
2022/12/01 08:52:30;;;;;;;;;;;;;;;;;;4972712;28;2013;-44
2022/12/01 08:54:57;;;;;;;;;;;;;;;;;;4972374;28;1408;-45
2022/12/01 08:57:24;;;;;;;;;;;;;;;;;;4972241;28;1829;-49
2022/12/01 09:13:14;;;;;;;;;;;;;;;;;;4973929;28;1892;-44
2022/12/01 09:15:42;;;;;;;;;;;;;;;;;;4991583;28;2135;-47
2022/12/01 09:18:09;;;;;;;;;;;;;;;;;;4985714;28;2104;-47
2022/12/01 09:20:36;;;;;;;;;;;;;;;;;;4972438;28;2053;-43
2022/12/01 09:23:03;;;;;;;;;;;;;;;;;;4972092;28;2038;-42
2022/12/01 09:25:32;;;;;;;;;;;;;;;;;;4972433;28;1935;-44
2022/12/01 09:27:59;;;;;;;;;;;;;;;;;;4972175;28;1956;-47
2022/12/01 09:30:27;;;;;;;;;;;;;;;;;;4971893;28;2039;-44
2022/12/01 09:32:55;;;;;;;;;;;;;;;;;;4972267;28;1949;-44
2022/12/01 09:35:22;;;;;;;;;;;;;;;;;;4972505;28;2019;-46
2022/12/01 09:37:49;;;;;;;;;;;;;;;;;;4986890;28;1914;-44
2022/12/01 09:40:17;;;;;;;;;;;;;;;;;;4971923;28;1955;-43
2022/12/01 09:42:46;;;;;;;;;;;;;;;;;;4991305;28;2141;-48
2022/12/01 09:45:20;;;;;;;;;;;;;;;;;;4991063;28;1836;-43
2022/12/01 09:47:48;;;;;;;;;;;;;;;;;;4990372;28;1803;-42
2022/12/01 09:50:18;;;;;;;;;;;;;;;;;;4991308;28;2036;-49
2022/12/01 09:52:50;;;;;;;;;;;;;;;;;;4991201;28;2125;-45
2022/12/01 09:55:19;;;;;;;;;;;;;;;;;;4971416;28;1991;-44
2022/12/01 09:57:47;;;;;;;;;;;;;;;;;;4971455;28;1950;-41
2022/12/01 10:00:17;;;;;;;;;;;;;;;;;;4971443;28;1948;-40
2022/12/01 10:02:59;;;;;;;;;;;;;;;;;;4971601;28;1838;-41
2022/12/01 10:05:30;;;;;;;;;;;;;;;;;;4971369;28;1887;-45
2022/12/01 10:08:03;;;;;;;;;;;;;;;;;;4970168;28;2075;-41
2022/12/01 10:10:36;;;;;;;;;;;;;;;;;;4975152;28;1521;-41
2022/12/01 10:13:11;;;;;;;;;;;;;;;;;;4975063;28;2176;-43
2022/12/01 10:15:50;;;;;;;;;;;;;;;;;;4975116;28;2115;-42
2022/12/01 10:18:22;;;;;;;;;;;;;;;;;;4981852;28;1977;-45
2022/12/01 10:21:03;;;;;;;;;;;;;;;;;;4994180;28;2036;-47
2022/12/01 10:23:35;;;;;;;;;;;;;;;;;;4994135;28;1693;-46
2022/12/01 10:26:08;;;;;;;;;;;;;;;;;;4994667;28;1908;-44
2022/12/01 10:28:55;;;;;;;;;;;;;;;;;;4993722;28;2058;-48
2022/12/01 10:31:28;;;;;;;;;;;;;;;;;;4993921;28;1982;-47
2022/12/01 10:34:10;;;;;;;;;;;;;;;;;;4994219;28;2027;-47
2022/12/01 10:36:37;;;;;;;;;;;;;;;;;;4994118;28;2107;-45
2022/12/01 10:39:05;;;;;;;;;;;;;;;;;;4985818;28;2083;-42
2022/12/01 10:41:35;;;;;;;;;;;;;;;;;;4992799;28;1984;-41
2022/12/01 10:44:04;;;;;;;;;;;;;;;;;;4994208;28;1869;-42
2022/12/01 10:46:34;;;;;;;;;;;;;;;;;;4993900;28;1857;-45
2022/12/01 10:49:11;;;;;;;;;;;;;;;;;;4993841;28;1983;-45
2022/12/01 10:51:46;;;;;;;;;;;;;;;;;;4993324;28;1851;-46
2022/12/01 10:54:14;;;;;;;;;;;;;;;;;;4993947;28;1855;-43
2022/12/01 10:56:46;;;;;;;;;;;;;;;;;;4993332;28;1821;-50
2022/12/01 10:59:25;;;;;;;;;;;;;;;;;;4993816;28;2046;-46
2022/12/01 11:01:53;;;;;;;;;;;;;;;;;;4993291;28;1962;-48
2022/12/01 11:04:20;;;;;;;;;;;;;;;;;;4993417;28;1868;-43
2022/12/01 11:06:48;;;;;;;;;;;;;;;;;;4993517;28;1839;-45
2022/12/01 11:09:19;;;;;;;;;;;;;;;;;;4984960;28;2134;-44
2022/12/01 11:12:01;;;;;;;;;;;;;;;;;;4973647;28;1973;-44
2022/12/01 11:15:04;;;;;;;;;;;;;;;;;;4988709;28;1750;-44
2022/12/01 11:17:37;;;;;;;;;;;;;;;;;;4952699;28;2142;-45
2022/12/01 11:20:23;;;;;;;;;;;;;;;;;;4989695;28;1916;-47
2022/12/01 11:22:51;;;;;;;;;;;;;;;;;;4993196;28;2086;-48
2022/12/01 11:25:19;;;;;;;;;;;;;;;;;;4993360;28;2264;-46
2022/12/01 11:27:50;;;;;;;;;;;;;;;;;;4993423;28;2026;-46
2022/12/01 11:30:25;;;;;;;;;;;;;;;;;;4993373;28;2028;-44
2022/12/01 11:32:53;;;;;;;;;;;;;;;;;;4992423;28;2018;-46
2022/12/01 11:35:22;;;;;;;;;;;;;;;;;;4993339;28;2169;-48
2022/12/01 11:37:51;;;;;;;;;;;;;;;;;;4993084;28;2009;-47
2022/12/01 11:40:54;;;;;;;;;;;;;;;;;;4992892;28;1972;-45
2022/12/01 11:43:34;;;;;;;;;;;;;;;;;;4992236;28;1891;-46
2022/12/01 11:46:04;;;;;;;;;;;;;;;;;;4992956;28;1657;-48
2022/12/01 11:48:35;;;;;;;;;;;;;;;;;;4992961;28;2007;-48
2022/12/01 11:51:05;;;;;;;;;;;;;;;;;;4992868;28;1858;-48
2022/12/01 11:53:39;;;;;;;;;;;;;;;;;;4993683;28;2062;-48
2022/12/01 11:56:15;;;;;;;;;;;;;;;;;;4992975;28;2014;-47
2022/12/01 11:58:44;;;;;;;;;;;;;;;;;;4992617;28;2233;-47
2022/12/01 12:01:18;;;;;;;;;;;;;;;;;;4992774;28;2135;-44
2022/12/01 12:04:10;;;;;;;;;;;;;;;;;;4991951;28;1961;-47
2022/12/01 12:06:49;;;;;;;;;;;;;;;;;;4992470;28;2425;-44
2022/12/01 12:09:16;;;;;;;;;;;;;;;;;;4991277;28;1893;-48
2022/12/01 12:12:02;;;;;;;;;;;;;;;;;;4990820;28;1993;-51
2022/12/01 12:14:38;;;;;;;;;;;;;;;;;;4991235;28;1936;-48
2022/12/01 12:17:19;;;;;;;;;;;;;;;;;;4990899;28;1757;-46
2022/12/01 12:20:05;;;;;;;;;;;;;;;;;;4989324;28;1960;-45
2022/12/01 12:22:43;;;;;;;;;;;;;;;;;;4971601;28;2064;-47
2022/12/01 12:25:10;;;;;;;;;;;;;;;;;;4970777;28;2253;-44
2022/12/01 12:27:40;;;;;;;;;;;;;;;;;;4970683;28;1856;-48
2022/12/01 12:30:26;;;;;;;;;;;;;;;;;;4971511;28;1751;-44
2022/12/01 12:33:09;;;;;;;;;;;;;;;;;;4970362;28;1836;-43
2022/12/01 12:35:39;;;;;;;;;;;;;;;;;;4971009;28;1841;-44
2022/12/01 12:38:29;;;;;;;;;;;;;;;;;;4970710;28;1903;-47
2022/12/01 12:41:08;;;;;;;;;;;;;;;;;;4970927;28;2079;-49
2022/12/01 12:43:53;;;;;;;;;;;;;;;;;;4970893;28;1965;-45
2022/12/01 12:46:26;;;;;;;;;;;;;;;;;;4970901;28;2073;-47
2022/12/01 12:48:59;;;;;;;;;;;;;;;;;;4970999;28;1950;-47
2022/12/01 12:51:45;;;;;;;;;;;;;;;;;;4970793;28;2000;-47
2022/12/01 12:54:27;;;;;;;;;;;;;;;;;;4971024;28;1937;-49
2022/12/01 12:56:57;;;;;;;;;;;;;;;;;;4970989;28;2021;-43
2022/12/01 12:59:45;;;;;;;;;;;;;;;;;;4970797;28;1915;-49
2022/12/01 13:02:21;;;;;;;;;;;;;;;;;;4970346;28;1907;-47
2022/12/01 13:04:49;;;;;;;;;;;;;;;;;;4970349;28;2092;-49
2022/12/01 13:07:16;;;;;;;;;;;;;;;;;;4970539;28;1982;-47
2022/12/01 13:09:45;;;;;;;;;;;;;;;;;;4970803;28;1933;-52
2022/12/01 13:12:33;;;;;;;;;;;;;;;;;;4970533;28;2022;-50
2022/12/01 13:15:16;;;;;;;;;;;;;;;;;;4972200;28;2166;-46
2022/12/01 13:17:51;;;;;;;;;;;;;;;;;;4980298;28;2283;-41
2022/12/01 13:20:21;;;;;;;;;;;;;;;;;;4991260;28;1976;-41
2022/12/01 13:22:57;;;;;;;;;;;;;;;;;;4991279;28;1941;-41
2022/12/01 13:25:37;;;;;;;;;;;;;;;;;;4990509;28;1873;-42
2022/12/01 13:28:15;;;;;;;;;;;;;;;;;;4991298;28;1687;-41
2022/12/01 13:30:57;;;;;;;;;;;;;;;;;;4985577;28;2073;-43
2022/12/01 13:33:26;;;;;;;;;;;;;;;;;;4972126;28;1736;-45
2022/12/01 13:35:56;;;;;;;;;;;;;;;;;;4971998;28;1909;-42
2022/12/01 13:38:54;;;;;;;;;;;;;;;;;;4971914;28;1967;-49
2022/12/01 13:41:23;;;;;;;;;;;;;;;;;;4971704;28;1843;-47
2022/12/01 13:44:25;;;;;;;;;;;;;;;;;;4973257;28;1998;-46
2022/12/01 13:46:57;;;;;;;;;;;;;;;;;;4953969;29;1847;-49
2022/12/01 13:49:38;;;;;;;;;;;;;;;;;;4972423;28;1782;-51
2022/12/01 13:52:20;;;;;;;;;;;;;;;;;;4975685;28;1733;-47
2022/12/01 13:55:10;;;;;;;;;;;;;;;;;;4975484;28;1991;-47
2022/12/01 13:57:37;;;;;;;;;;;;;;;;;;4972218;28;1911;-48
2022/12/01 14:00:22;;;;;;;;;;;;;;;;;;4974889;28;1951;-47
2022/12/01 14:03:08;;;;;;;;;;;;;;;;;;4975438;28;1927;-46
2022/12/01 14:05:38;;;;;;;;;;;;;;;;;;4974845;28;2161;-46
2022/12/01 14:08:14;;;;;;;;;;;;;;;;;;4975704;28;2126;-46
2022/12/01 14:11:11;;;;;;;;;;;;;;;;;;4973445;28;2033;-46
2022/12/01 14:13:47;;;;;;;;;;;;;;;;;;4974687;28;1770;-50
2022/12/01 14:16:14;;;;;;;;;;;;;;;;;;4974915;28;2245;-47
2022/12/01 14:18:47;;;;;;;;;;;;;;;;;;4985590;28;1955;-47
2022/12/01 14:21:14;;;;;;;;;;;;;;;;;;4994200;28;2027;-49
2022/12/01 14:23:56;;;;;;;;;;;;;;;;;;4986869;28;1900;-49
2022/12/01 14:26:23;;;;;;;;;;;;;;;;;;4993129;28;1966;-46
2022/12/01 14:28:54;;;;;;;;;;;;;;;;;;4994700;28;2067;-46
2022/12/01 14:31:22;;;;;;;;;;;;;;;;;;4994615;28;1935;-44
2022/12/01 14:34:18;;;;;;;;;;;;;;;;;;4994098;28;1962;-49
2022/12/01 14:37:01;;;;;;;;;;;;;;;;;;4993063;28;2091;-46
2022/12/01 14:39:30;;;;;;;;;;;;;;;;;;4974596;28;1935;-48
2022/12/01 14:42:00;;;;;;;;;;;;;;;;;;4974746;28;2091;-46
2022/12/01 14:44:34;;;;;;;;;;;;;;;;;;4974959;28;1975;-46
2022/12/01 14:47:08;;;;;;;;;;;;;;;;;;4974667;28;2323;-44
2022/12/01 14:49:54;;;;;;;;;;;;;;;;;;4974718;28;2026;-45
2022/12/01 14:52:28;;;;;;;;;;;;;;;;;;4974550;28;2187;-47
2022/12/01 14:54:59;;;;;;;;;;;;;;;;;;4973597;28;1784;-46
2022/12/01 14:57:52;;;;;;;;;;;;;;;;;;4974727;28;1880;-47
2022/12/01 15:00:21;;;;;;;;;;;;;;;;;;4973337;28;2014;-43
2022/12/01 15:02:51;;;;;;;;;;;;;;;;;;4974623;28;2176;-46
2022/12/01 15:05:19;;;;;;;;;;;;;;;;;;4974502;28;2026;-46
2022/12/01 15:07:48;;;;;;;;;;;;;;;;;;4974113;28;1940;-47
2022/12/01 15:10:19;;;;;;;;;;;;;;;;;;4974193;28;1979;-48
2022/12/01 15:12:47;;;;;;;;;;;;;;;;;;4974462;28;1593;-47
2022/12/01 15:15:21;;;;;;;;;;;;;;;;;;4974059;28;2104;-46
2022/12/01 15:17:50;;;;;;;;;;;;;;;;;;4977181;28;2125;-46
2022/12/01 15:20:37;;;;;;;;;;;;;;;;;;4994286;28;1978;-46
2022/12/01 15:23:11;;;;;;;;;;;;;;;;;;4993798;28;1899;-47
2022/12/01 15:25:40;;;;;;;;;;;;;;;;;;4993238;28;1909;-44
2022/12/01 15:28:13;;;;;;;;;;;;;;;;;;4993484;28;1845;-46
2022/12/01 15:30:42;;;;;;;;;;;;;;;;;;4993390;28;1850;-48
2022/12/01 15:33:21;;;;;;;;;;;;;;;;;;5007897;28;2130;-49
2022/12/01 15:35:53;;;;;;;;;;;;;;;;;;4992302;28;2027;-45
2022/12/01 15:38:22;;;;;;;;;;;;;;;;;;4992459;28;2053;-48
2022/12/01 15:40:50;;;;;;;;;;;;;;;;;;4992566;28;1955;-45
2022/12/01 15:43:38;;;;;;;;;;;;;;;;;;4992515;28;2072;-46
2022/12/01 15:46:12;;;;;;;;;;;;;;;;;;4991904;28;2008;-44
2022/12/01 15:48:40;;;;;;;;;;;;;;;;;;4992570;28;1789;-47
2022/12/01 15:51:26;;;;;;;;;;;;;;;;;;4992496;28;1812;-45
2022/12/01 15:54:00;;;;;;;;;;;;;;;;;;4992956;28;2083;-46
2022/12/01 15:56:29;;;;;;;;;;;;;;;;;;4993107;28;1767;-44
2022/12/01 15:59:08;;;;;;;;;;;;;;;;;;4993118;28;1335;-46
2022/12/01 16:01:36;;;;;;;;;;;;;;;;;;4992920;28;1980;-47
2022/12/01 16:04:05;;;;;;;;;;;;;;;;;;4992954;28;1983;-45
2022/12/01 16:06:33;;;;;;;;;;;;;;;;;;4992728;28;2047;-50
2022/12/01 16:09:02;;;;;;;;;;;;;;;;;;4990312;28;11052;-47
2022/12/01 16:11:29;;;;;;;;;;;;;;;;;;4992501;28;2474;-47
2022/12/01 16:13:58;;;;;;;;;;;;;;;;;;4992515;28;2020;-44
2022/12/01 16:16:32;;;;;;;;;;;;;;;;;;4992164;28;1853;-46
2022/12/01 16:19:08;;;;;;;;;;;;;;;;;;4979946;28;2359;-47
2022/12/01 16:21:44;;;;;;;;;;;;;;;;;;4973231;28;2074;-44
2022/12/01 16:24:18;;;;;;;;;;;;;;;;;;4972992;28;1911;-46
2022/12/01 16:26:53;;;;;;;;;;;;;;;;;;4973027;28;1882;-50
2022/12/01 16:29:24;;;;;;;;;;;;;;;;;;4972127;28;2123;-45
2022/12/01 16:31:52;;;;;;;;;;;;;;;;;;4972863;28;1747;-49
2022/12/01 16:34:39;;;;;;;;;;;;;;;;;;4972713;28;2172;-45
2022/12/01 16:37:13;;;;;;;;;;;;;;;;;;4971634;28;2261;-47
2022/12/01 16:39:40;;;;;;;;;;;;;;;;;;4972749;28;1914;-46
2022/12/01 16:42:10;;;;;;;;;;;;;;;;;;4972910;28;2005;-48
2022/12/01 16:44:38;;;;;;;;;;;;;;;;;;4972689;28;2030;-48
2022/12/01 16:47:31;;;;;;;;;;;;;;;;;;4972599;28;1866;-43
2022/12/01 16:49:58;;;;;;;;;;;;;;;;;;4972035;28;1919;-46
2022/12/01 16:52:26;;;;;;;;;;;;;;;;;;4971666;28;1780;-48
2022/12/01 16:55:28;;;;;;;;;;;;;;;;;;4972313;28;1993;-49
2022/12/01 16:57:56;;;;;;;;;;;;;;;;;;4972420;28;1833;-46
2022/12/01 17:00:23;;;;;;;;;;;;;;;;;;4972419;28;1968;-47
2022/12/01 17:02:51;;;;;;;;;;;;;;;;;;4971722;28;1844;-45
2022/12/01 17:05:24;;;;;;;;;;;;;;;;;;4972155;28;2078;-48
2022/12/01 17:07:50;;;;;;;;;;;;;;;;;;4972028;28;2125;-46
2022/12/01 17:10:19;;;;;;;;;;;;;;;;;;4972035;28;2022;-45
2022/12/01 17:12:46;;;;;;;;;;;;;;;;;;4972348;28;2005;-47
2022/12/01 17:15:13;;;;;;;;;;;;;;;;;;4971789;28;1913;-44
2022/12/01 17:17:40;;;;;;;;;;;;;;;;;;4971143;28;2033;-45
2022/12/01 17:20:08;;;;;;;;;;;;;;;;;;4971522;28;1904;-45
2022/12/01 17:22:35;;;;;;;;;;;;;;;;;;4972547;28;1863;-44
2022/12/01 17:25:02;;;;;;;;;;;;;;;;;;4971916;28;2010;-43
2022/12/01 17:27:30;;;;;;;;;;;;;;;;;;4971922;28;2026;-46
2022/12/01 17:30:00;;;;;;;;;;;;;;;;;;4970372;28;2008;-45
2022/12/01 17:32:27;;;;;;;;;;;;;;;;;;4970985;28;1758;-45
2022/12/01 17:34:54;;;;;;;;;;;;;;;;;;4970763;28;1854;-44
2022/12/01 17:37:22;;;;;;;;;;;;;;;;;;4970305;28;2032;-45
2022/12/01 17:39:49;;;;;;;;;;;;;;;;;;4970155;28;2226;-44
2022/12/01 17:42:16;;;;;;;;;;;;;;;;;;4971344;28;1971;-49
2022/12/01 17:44:43;;;;;;;;;;;;;;;;;;4971757;28;1633;-46
2022/12/01 17:47:10;;;;;;;;;;;;;;;;;;4977422;28;2117;-46
2022/12/01 17:49:37;;;;;;;;;;;;;;;;;;4990971;28;2071;-43
2022/12/01 17:52:05;;;;;;;;;;;;;;;;;;4991644;28;1970;-45
2022/12/01 17:54:33;;;;;;;;;;;;;;;;;;4990658;28;1967;-45
2022/12/01 17:57:00;;;;;;;;;;;;;;;;;;4990814;28;1898;-47
2022/12/01 17:59:27;;;;;;;;;;;;;;;;;;4991175;28;2032;-48
2022/12/01 18:01:54;;;;;;;;;;;;;;;;;;4991590;28;1972;-45